sensor_id;sensor_type;location;lat;lon;timestamp;P1;durP1;ratioP1;P2;durP2;ratioP2
69401;SDS011;56589;51.992;5.924;2022-10-26T00:00:12;11.75;;;6.03;;
69401;SDS011;56589;51.992;5.924;2022-10-26T00:02:38;12.48;;;6.75;;
69401;SDS011;56589;51.992;5.924;2022-10-26T00:05:05;12.32;;;5.72;;
69401;SDS011;56589;51.992;5.924;2022-10-26T00:07:31;11.32;;;6.13;;
69401;SDS011;56589;51.992;5.924;2022-10-26T00:09:57;12.35;;;6.65;;
69401;SDS011;56589;51.992;5.924;2022-10-26T00:12:23;9.75;;;5.53;;
69401;SDS011;56589;51.992;5.924;2022-10-26T00:14:51;15.15;;;5.97;;
69401;SDS011;56589;51.992;5.924;2022-10-26T00:17:17;9.18;;;5.78;;
69401;SDS011;56589;51.992;5.924;2022-10-26T00:19:43;11.02;;;5.95;;
69401;SDS011;56589;51.992;5.924;2022-10-26T00:22:08;12.73;;;5.45;;
69401;SDS011;56589;51.992;5.924;2022-10-26T00:24:34;11.80;;;6.50;;
69401;SDS011;56589;51.992;5.924;2022-10-26T00:27:00;11.25;;;6.00;;
69401;SDS011;56589;51.992;5.924;2022-10-26T00:29:26;8.90;;;5.57;;
69401;SDS011;56589;51.992;5.924;2022-10-26T00:31:54;12.57;;;6.32;;
69401;SDS011;56589;51.992;5.924;2022-10-26T00:34:20;11.90;;;5.45;;
69401;SDS011;56589;51.992;5.924;2022-10-26T00:36:46;12.57;;;5.90;;
69401;SDS011;56589;51.992;5.924;2022-10-26T00:39:12;11.48;;;5.95;;
69401;SDS011;56589;51.992;5.924;2022-10-26T00:41:38;14.30;;;5.90;;
69401;SDS011;56589;51.992;5.924;2022-10-26T00:47:18;12.20;;;6.93;;
69401;SDS011;56589;51.992;5.924;2022-10-26T00:49:53;9.00;;;5.43;;
69401;SDS011;56589;51.992;5.924;2022-10-26T00:52:21;11.48;;;5.65;;
69401;SDS011;56589;51.992;5.924;2022-10-26T00:54:49;15.05;;;5.78;;
69401;SDS011;56589;51.992;5.924;2022-10-26T00:57:16;16.10;;;6.35;;
69401;SDS011;56589;51.992;5.924;2022-10-26T00:59:43;12.77;;;5.88;;
69401;SDS011;56589;51.992;5.924;2022-10-26T01:02:11;12.13;;;5.45;;
69401;SDS011;56589;51.992;5.924;2022-10-26T01:04:40;12.43;;;5.95;;
69401;SDS011;56589;51.992;5.924;2022-10-26T01:07:07;10.35;;;4.72;;
69401;SDS011;56589;51.992;5.924;2022-10-26T01:09:33;11.13;;;5.10;;
69401;SDS011;56589;51.992;5.924;2022-10-26T01:12:00;15.38;;;4.63;;
69401;SDS011;56589;51.992;5.924;2022-10-26T01:14:26;9.80;;;5.47;;
69401;SDS011;56589;51.992;5.924;2022-10-26T01:16:55;16.95;;;5.28;;
69401;SDS011;56589;51.992;5.924;2022-10-26T01:19:54;10.00;;;5.25;;
69401;SDS011;56589;51.992;5.924;2022-10-26T01:22:53;11.65;;;5.82;;
69401;SDS011;56589;51.992;5.924;2022-10-26T01:25:34;11.02;;;6.57;;
69401;SDS011;56589;51.992;5.924;2022-10-26T01:28:28;10.00;;;5.15;;
69401;SDS011;56589;51.992;5.924;2022-10-26T01:31:19;15.65;;;5.28;;
69401;SDS011;56589;51.992;5.924;2022-10-26T01:33:53;14.25;;;5.40;;
69401;SDS011;56589;51.992;5.924;2022-10-26T01:36:26;11.23;;;4.70;;
69401;SDS011;56589;51.992;5.924;2022-10-26T01:39:04;10.48;;;4.80;;
69401;SDS011;56589;51.992;5.924;2022-10-26T01:41:42;8.80;;;5.07;;
69401;SDS011;56589;51.992;5.924;2022-10-26T01:44:15;10.30;;;4.93;;
69401;SDS011;56589;51.992;5.924;2022-10-26T01:46:48;10.75;;;4.82;;
69401;SDS011;56589;51.992;5.924;2022-10-26T01:49:20;9.95;;;5.13;;
69401;SDS011;56589;51.992;5.924;2022-10-26T01:51:51;9.75;;;5.30;;
69401;SDS011;56589;51.992;5.924;2022-10-26T01:54:17;10.50;;;5.15;;
69401;SDS011;56589;51.992;5.924;2022-10-26T01:56:43;11.45;;;5.80;;
69401;SDS011;56589;51.992;5.924;2022-10-26T01:59:18;12.48;;;5.40;;
69401;SDS011;56589;51.992;5.924;2022-10-26T02:02:13;10.93;;;5.03;;
69401;SDS011;56589;51.992;5.924;2022-10-26T02:05:17;15.75;;;5.68;;
69401;SDS011;56589;51.992;5.924;2022-10-26T02:07:57;15.55;;;4.78;;
69401;SDS011;56589;51.992;5.924;2022-10-26T02:10:43;10.88;;;5.50;;
69401;SDS011;56589;51.992;5.924;2022-10-26T02:13:24;10.50;;;5.38;;
69401;SDS011;56589;51.992;5.924;2022-10-26T02:16:07;12.60;;;5.15;;
69401;SDS011;56589;51.992;5.924;2022-10-26T02:18:50;11.30;;;5.53;;
69401;SDS011;56589;51.992;5.924;2022-10-26T02:21:28;9.57;;;5.35;;
69401;SDS011;56589;51.992;5.924;2022-10-26T02:24:02;10.20;;;5.38;;
69401;SDS011;56589;51.992;5.924;2022-10-26T02:26:34;9.00;;;5.60;;
69401;SDS011;56589;51.992;5.924;2022-10-26T02:29:04;13.57;;;5.82;;
69401;SDS011;56589;51.992;5.924;2022-10-26T02:31:35;17.52;;;5.60;;
69401;SDS011;56589;51.992;5.924;2022-10-26T02:34:08;13.05;;;5.63;;
69401;SDS011;56589;51.992;5.924;2022-10-26T02:36:40;14.57;;;5.60;;
69401;SDS011;56589;51.992;5.924;2022-10-26T02:39:11;14.98;;;5.20;;
69401;SDS011;56589;51.992;5.924;2022-10-26T02:41:42;15.02;;;5.65;;
69401;SDS011;56589;51.992;5.924;2022-10-26T02:44:11;11.77;;;5.30;;
69401;SDS011;56589;51.992;5.924;2022-10-26T02:46:45;13.57;;;5.43;;
69401;SDS011;56589;51.992;5.924;2022-10-26T02:49:15;13.25;;;5.53;;
69401;SDS011;56589;51.992;5.924;2022-10-26T02:51:42;11.13;;;5.18;;
69401;SDS011;56589;51.992;5.924;2022-10-26T02:54:14;12.95;;;5.60;;
69401;SDS011;56589;51.992;5.924;2022-10-26T02:56:52;14.70;;;5.80;;
69401;SDS011;56589;51.992;5.924;2022-10-26T02:59:25;12.55;;;5.78;;
69401;SDS011;56589;51.992;5.924;2022-10-26T03:01:57;11.32;;;4.93;;
69401;SDS011;56589;51.992;5.924;2022-10-26T03:04:30;16.08;;;5.53;;
69401;SDS011;56589;51.992;5.924;2022-10-26T03:06:59;10.25;;;5.32;;
69401;SDS011;56589;51.992;5.924;2022-10-26T03:09:26;13.85;;;5.30;;
69401;SDS011;56589;51.992;5.924;2022-10-26T03:11:52;13.90;;;5.03;;
69401;SDS011;56589;51.992;5.924;2022-10-26T03:14:18;16.67;;;5.20;;
69401;SDS011;56589;51.992;5.924;2022-10-26T03:16:44;10.63;;;5.18;;
69401;SDS011;56589;51.992;5.924;2022-10-26T03:19:10;17.48;;;6.35;;
69401;SDS011;56589;51.992;5.924;2022-10-26T03:21:39;15.52;;;5.90;;
69401;SDS011;56589;51.992;5.924;2022-10-26T03:24:05;14.10;;;5.53;;
69401;SDS011;56589;51.992;5.924;2022-10-26T03:26:31;8.65;;;5.00;;
69401;SDS011;56589;51.992;5.924;2022-10-26T03:28:57;12.60;;;5.03;;
69401;SDS011;56589;51.992;5.924;2022-10-26T03:31:23;11.50;;;4.95;;
69401;SDS011;56589;51.992;5.924;2022-10-26T03:33:48;10.35;;;5.47;;
69401;SDS011;56589;51.992;5.924;2022-10-26T03:36:14;9.30;;;5.22;;
69401;SDS011;56589;51.992;5.924;2022-10-26T03:38:42;15.13;;;5.22;;
69401;SDS011;56589;51.992;5.924;2022-10-26T03:41:08;10.88;;;5.13;;
69401;SDS011;56589;51.992;5.924;2022-10-26T03:43:34;14.13;;;5.60;;
69401;SDS011;56589;51.992;5.924;2022-10-26T03:46:00;9.20;;;4.82;;
69401;SDS011;56589;51.992;5.924;2022-10-26T03:48:25;9.82;;;5.05;;
69401;SDS011;56589;51.992;5.924;2022-10-26T03:50:51;12.93;;;5.32;;
69401;SDS011;56589;51.992;5.924;2022-10-26T03:53:21;8.68;;;4.97;;
69401;SDS011;56589;51.992;5.924;2022-10-26T03:55:50;13.30;;;5.22;;
69401;SDS011;56589;51.992;5.924;2022-10-26T03:58:16;12.75;;;5.38;;
69401;SDS011;56589;51.992;5.924;2022-10-26T04:00:41;13.02;;;5.10;;
69401;SDS011;56589;51.992;5.924;2022-10-26T04:03:07;13.35;;;5.63;;
69401;SDS011;56589;51.992;5.924;2022-10-26T04:05:33;8.38;;;4.30;;
69401;SDS011;56589;51.992;5.924;2022-10-26T04:07:59;11.57;;;4.90;;
69401;SDS011;56589;51.992;5.924;2022-10-26T04:10:26;12.07;;;4.55;;
69401;SDS011;56589;51.992;5.924;2022-10-26T04:12:55;11.40;;;5.40;;
69401;SDS011;56589;51.992;5.924;2022-10-26T04:15:22;15.65;;;5.80;;
69401;SDS011;56589;51.992;5.924;2022-10-26T04:17:48;18.50;;;5.25;;
69401;SDS011;56589;51.992;5.924;2022-10-26T04:20:20;16.65;;;5.43;;
69401;SDS011;56589;51.992;5.924;2022-10-26T04:22:46;10.07;;;5.05;;
69401;SDS011;56589;51.992;5.924;2022-10-26T04:25:12;9.88;;;4.63;;
69401;SDS011;56589;51.992;5.924;2022-10-26T04:27:37;11.80;;;4.70;;
69401;SDS011;56589;51.992;5.924;2022-10-26T04:30:06;16.80;;;6.03;;
69401;SDS011;56589;51.992;5.924;2022-10-26T04:32:33;20.30;;;5.75;;
69401;SDS011;56589;51.992;5.924;2022-10-26T04:34:59;12.82;;;4.93;;
69401;SDS011;56589;51.992;5.924;2022-10-26T04:37:25;12.80;;;5.78;;
69401;SDS011;56589;51.992;5.924;2022-10-26T04:39:51;11.55;;;5.22;;
69401;SDS011;56589;51.992;5.924;2022-10-26T04:42:17;12.40;;;5.25;;
69401;SDS011;56589;51.992;5.924;2022-10-26T04:44:42;14.27;;;5.25;;
69401;SDS011;56589;51.992;5.924;2022-10-26T04:47:11;14.93;;;5.05;;
69401;SDS011;56589;51.992;5.924;2022-10-26T04:49:37;10.73;;;5.78;;
69401;SDS011;56589;51.992;5.924;2022-10-26T04:52:03;12.40;;;5.25;;
69401;SDS011;56589;51.992;5.924;2022-10-26T04:54:29;15.10;;;5.57;;
69401;SDS011;56589;51.992;5.924;2022-10-26T04:56:55;16.42;;;5.57;;
69401;SDS011;56589;51.992;5.924;2022-10-26T04:59:21;12.25;;;5.97;;
69401;SDS011;56589;51.992;5.924;2022-10-26T05:01:47;12.48;;;5.85;;
69401;SDS011;56589;51.992;5.924;2022-10-26T05:04:15;14.88;;;5.78;;
69401;SDS011;56589;51.992;5.924;2022-10-26T05:06:41;10.00;;;5.47;;
69401;SDS011;56589;51.992;5.924;2022-10-26T05:09:07;12.82;;;5.03;;
69401;SDS011;56589;51.992;5.924;2022-10-26T05:11:33;12.30;;;5.70;;
69401;SDS011;56589;51.992;5.924;2022-10-26T05:13:58;11.85;;;5.40;;
69401;SDS011;56589;51.992;5.924;2022-10-26T05:16:24;11.82;;;4.70;;
69401;SDS011;56589;51.992;5.924;2022-10-26T05:18:50;9.93;;;5.50;;
69401;SDS011;56589;51.992;5.924;2022-10-26T05:21:18;14.98;;;5.47;;
69401;SDS011;56589;51.992;5.924;2022-10-26T05:23:47;10.77;;;5.43;;
69401;SDS011;56589;51.992;5.924;2022-10-26T05:26:14;13.27;;;4.82;;
69401;SDS011;56589;51.992;5.924;2022-10-26T05:28:40;11.95;;;5.53;;
69401;SDS011;56589;51.992;5.924;2022-10-26T05:31:09;14.43;;;5.65;;
69401;SDS011;56589;51.992;5.924;2022-10-26T05:33:34;10.57;;;4.50;;
69401;SDS011;56589;51.992;5.924;2022-10-26T05:36:00;9.07;;;4.97;;
69401;SDS011;56589;51.992;5.924;2022-10-26T05:38:29;9.90;;;4.95;;
69401;SDS011;56589;51.992;5.924;2022-10-26T05:40:54;7.60;;;4.57;;
69401;SDS011;56589;51.992;5.924;2022-10-26T05:43:21;15.68;;;5.03;;
69401;SDS011;56589;51.992;5.924;2022-10-26T05:45:48;9.68;;;4.70;;
69401;SDS011;56589;51.992;5.924;2022-10-26T05:48:15;13.82;;;5.38;;
69401;SDS011;56589;51.992;5.924;2022-10-26T05:50:41;8.48;;;4.88;;
69401;SDS011;56589;51.992;5.924;2022-10-26T05:53:07;15.27;;;4.90;;
69401;SDS011;56589;51.992;5.924;2022-10-26T05:55:35;10.50;;;4.63;;
69401;SDS011;56589;51.992;5.924;2022-10-26T05:58:02;10.93;;;4.68;;
69401;SDS011;56589;51.992;5.924;2022-10-26T06:00:33;10.88;;;4.95;;
69401;SDS011;56589;51.992;5.924;2022-10-26T06:03:08;10.88;;;4.80;;
69401;SDS011;56589;51.992;5.924;2022-10-26T06:05:50;9.88;;;4.07;;
69401;SDS011;56589;51.992;5.924;2022-10-26T06:08:18;13.45;;;4.55;;
69401;SDS011;56589;51.992;5.924;2022-10-26T06:10:49;17.15;;;5.45;;
69401;SDS011;56589;51.992;5.924;2022-10-26T06:13:17;10.82;;;4.35;;
69401;SDS011;56589;51.992;5.924;2022-10-26T06:15:47;7.03;;;4.43;;
69401;SDS011;56589;51.992;5.924;2022-10-26T06:18:28;8.03;;;4.53;;
69401;SDS011;56589;51.992;5.924;2022-10-26T06:21:09;13.05;;;4.28;;
69401;SDS011;56589;51.992;5.924;2022-10-26T06:23:57;11.38;;;4.25;;
69401;SDS011;56589;51.992;5.924;2022-10-26T06:26:39;9.80;;;3.80;;
69401;SDS011;56589;51.992;5.924;2022-10-26T06:29:21;9.43;;;4.55;;
69401;SDS011;56589;51.992;5.924;2022-10-26T06:32:01;13.00;;;4.05;;
69401;SDS011;56589;51.992;5.924;2022-10-26T06:34:30;9.75;;;4.30;;
69401;SDS011;56589;51.992;5.924;2022-10-26T06:37:01;10.43;;;4.03;;
69401;SDS011;56589;51.992;5.924;2022-10-26T06:39:30;10.43;;;3.85;;
69401;SDS011;56589;51.992;5.924;2022-10-26T06:42:04;8.90;;;4.63;;
69401;SDS011;56589;51.992;5.924;2022-10-26T06:44:33;13.93;;;5.03;;
69401;SDS011;56589;51.992;5.924;2022-10-26T06:47:02;9.20;;;4.68;;
69401;SDS011;56589;51.992;5.924;2022-10-26T06:49:34;9.15;;;3.78;;
69401;SDS011;56589;51.992;5.924;2022-10-26T06:52:04;9.18;;;4.38;;
69401;SDS011;56589;51.992;5.924;2022-10-26T06:54:44;8.70;;;3.70;;
69401;SDS011;56589;51.992;5.924;2022-10-26T06:57:17;11.40;;;4.72;;
69401;SDS011;56589;51.992;5.924;2022-10-26T06:59:47;11.13;;;4.40;;
69401;SDS011;56589;51.992;5.924;2022-10-26T07:02:17;10.88;;;4.32;;
69401;SDS011;56589;51.992;5.924;2022-10-26T07:04:43;12.70;;;4.40;;
69401;SDS011;56589;51.992;5.924;2022-10-26T07:07:10;14.07;;;4.10;;
69401;SDS011;56589;51.992;5.924;2022-10-26T07:09:39;9.73;;;4.93;;
69401;SDS011;56589;51.992;5.924;2022-10-26T07:12:05;12.82;;;4.18;;
69401;SDS011;56589;51.992;5.924;2022-10-26T07:14:34;6.88;;;4.43;;
69401;SDS011;56589;51.992;5.924;2022-10-26T07:17:00;10.60;;;3.72;;
69401;SDS011;56589;51.992;5.924;2022-10-26T07:19:26;8.80;;;4.95;;
69401;SDS011;56589;51.992;5.924;2022-10-26T07:21:52;9.15;;;4.45;;
69401;SDS011;56589;51.992;5.924;2022-10-26T07:24:18;15.15;;;4.40;;
69401;SDS011;56589;51.992;5.924;2022-10-26T07:26:44;8.85;;;3.92;;
69401;SDS011;56589;51.992;5.924;2022-10-26T07:29:10;9.18;;;4.50;;
69401;SDS011;56589;51.992;5.924;2022-10-26T07:31:38;8.82;;;4.00;;
69401;SDS011;56589;51.992;5.924;2022-10-26T07:34:04;6.82;;;3.55;;
69401;SDS011;56589;51.992;5.924;2022-10-26T07:36:30;10.10;;;4.05;;
69401;SDS011;56589;51.992;5.924;2022-10-26T07:38:56;10.10;;;3.75;;
69401;SDS011;56589;51.992;5.924;2022-10-26T07:41:21;9.48;;;3.95;;
69401;SDS011;56589;51.992;5.924;2022-10-26T07:43:47;8.85;;;3.90;;
69401;SDS011;56589;51.992;5.924;2022-10-26T07:46:15;10.40;;;3.78;;
69401;SDS011;56589;51.992;5.924;2022-10-26T07:48:43;10.15;;;3.90;;
69401;SDS011;56589;51.992;5.924;2022-10-26T07:51:09;6.50;;;3.67;;
69401;SDS011;56589;51.992;5.924;2022-10-26T07:53:35;13.60;;;4.00;;
69401;SDS011;56589;51.992;5.924;2022-10-26T07:56:01;7.18;;;3.55;;
69401;SDS011;56589;51.992;5.924;2022-10-26T07:58:27;10.82;;;3.58;;
69401;SDS011;56589;51.992;5.924;2022-10-26T08:00:53;7.15;;;3.67;;
69401;SDS011;56589;51.992;5.924;2022-10-26T08:03:20;11.25;;;3.40;;
69401;SDS011;56589;51.992;5.924;2022-10-26T08:05:48;11.00;;;3.35;;
69401;SDS011;56589;51.992;5.924;2022-10-26T08:08:14;9.25;;;3.75;;
69401;SDS011;56589;51.992;5.924;2022-10-26T08:10:41;15.10;;;3.65;;
69401;SDS011;56589;51.992;5.924;2022-10-26T08:13:07;5.63;;;3.50;;
69401;SDS011;56589;51.992;5.924;2022-10-26T08:15:32;6.68;;;4.13;;
69401;SDS011;56589;51.992;5.924;2022-10-26T08:17:58;8.20;;;3.30;;
69401;SDS011;56589;51.992;5.924;2022-10-26T08:20:24;7.65;;;3.50;;
69401;SDS011;56589;51.992;5.924;2022-10-26T08:22:52;8.52;;;3.55;;
69401;SDS011;56589;51.992;5.924;2022-10-26T08:25:20;8.60;;;3.67;;
69401;SDS011;56589;51.992;5.924;2022-10-26T08:27:46;7.97;;;3.50;;
69401;SDS011;56589;51.992;5.924;2022-10-26T08:30:12;8.57;;;3.63;;
69401;SDS011;56589;51.992;5.924;2022-10-26T08:32:38;9.60;;;3.22;;
69401;SDS011;56589;51.992;5.924;2022-10-26T08:35:04;6.53;;;3.38;;
69401;SDS011;56589;51.992;5.924;2022-10-26T08:37:30;7.57;;;3.00;;
69401;SDS011;56589;51.992;5.924;2022-10-26T08:39:59;11.15;;;3.17;;
69401;SDS011;56589;51.992;5.924;2022-10-26T08:42:26;7.18;;;2.95;;
69401;SDS011;56589;51.992;5.924;2022-10-26T08:45:02;5.65;;;2.88;;
69401;SDS011;56589;51.992;5.924;2022-10-26T08:47:39;8.57;;;2.88;;
69401;SDS011;56589;51.992;5.924;2022-10-26T08:50:12;6.35;;;3.15;;
69401;SDS011;56589;51.992;5.924;2022-10-26T08:52:49;5.25;;;2.25;;
69401;SDS011;56589;51.992;5.924;2022-10-26T08:55:26;7.47;;;2.40;;
69401;SDS011;56589;51.992;5.924;2022-10-26T08:58:04;4.78;;;2.47;;
69401;SDS011;56589;51.992;5.924;2022-10-26T09:00:38;9.02;;;2.40;;
69401;SDS011;56589;51.992;5.924;2022-10-26T09:03:07;7.45;;;2.10;;
69401;SDS011;56589;51.992;5.924;2022-10-26T09:05:40;7.07;;;2.47;;
69401;SDS011;56589;51.992;5.924;2022-10-26T09:08:24;12.60;;;2.50;;
69401;SDS011;56589;51.992;5.924;2022-10-26T09:11:11;5.43;;;1.95;;
69401;SDS011;56589;51.992;5.924;2022-10-26T09:13:51;6.28;;;2.05;;
69401;SDS011;56589;51.992;5.924;2022-10-26T09:16:36;5.90;;;2.30;;
69401;SDS011;56589;51.992;5.924;2022-10-26T09:22:29;4.70;;;1.88;;
69401;SDS011;56589;51.992;5.924;2022-10-26T09:25:13;5.85;;;2.13;;
69401;SDS011;56589;51.992;5.924;2022-10-26T09:27:47;3.92;;;1.52;;
69401;SDS011;56589;51.992;5.924;2022-10-26T09:30:18;7.30;;;2.10;;
69401;SDS011;56589;51.992;5.924;2022-10-26T09:32:47;6.93;;;2.10;;
69401;SDS011;56589;51.992;5.924;2022-10-26T09:35:18;7.03;;;1.70;;
69401;SDS011;56589;51.992;5.924;2022-10-26T09:37:48;10.10;;;2.40;;
69401;SDS011;56589;51.992;5.924;2022-10-26T09:40:22;4.15;;;1.80;;
69401;SDS011;56589;51.992;5.924;2022-10-26T09:43:01;5.80;;;1.90;;
69401;SDS011;56589;51.992;5.924;2022-10-26T09:45:35;5.57;;;2.00;;
69401;SDS011;56589;51.992;5.924;2022-10-26T09:48:06;7.95;;;2.22;;
69401;SDS011;56589;51.992;5.924;2022-10-26T09:50:41;6.25;;;2.50;;
69401;SDS011;56589;51.992;5.924;2022-10-26T09:53:13;6.13;;;2.70;;
69401;SDS011;56589;51.992;5.924;2022-10-26T09:55:40;6.55;;;2.42;;
69401;SDS011;56589;51.992;5.924;2022-10-26T09:58:13;5.93;;;2.40;;
69401;SDS011;56589;51.992;5.924;2022-10-26T10:00:48;8.18;;;2.50;;
69401;SDS011;56589;51.992;5.924;2022-10-26T10:03:17;6.63;;;2.60;;
69401;SDS011;56589;51.992;5.924;2022-10-26T10:05:44;8.38;;;2.83;;
69401;SDS011;56589;51.992;5.924;2022-10-26T10:08:14;8.25;;;2.90;;
69401;SDS011;56589;51.992;5.924;2022-10-26T10:13:28;4.85;;;2.65;;
69401;SDS011;56589;51.992;5.924;2022-10-26T10:15:57;7.05;;;2.60;;
69401;SDS011;56589;51.992;5.924;2022-10-26T10:18:29;6.40;;;2.58;;
69401;SDS011;56589;51.992;5.924;2022-10-26T10:20:57;8.45;;;2.50;;
69401;SDS011;56589;51.992;5.924;2022-10-26T10:23:25;9.30;;;2.70;;
69401;SDS011;56589;51.992;5.924;2022-10-26T10:25:58;8.45;;;2.35;;
69401;SDS011;56589;51.992;5.924;2022-10-26T10:28:30;7.55;;;2.30;;
69401;SDS011;56589;51.992;5.924;2022-10-26T10:30:59;5.03;;;2.22;;
69401;SDS011;56589;51.992;5.924;2022-10-26T10:33:37;7.13;;;2.40;;
69401;SDS011;56589;51.992;5.924;2022-10-26T10:36:06;7.72;;;2.55;;
69401;SDS011;56589;51.992;5.924;2022-10-26T10:38:39;7.72;;;2.92;;
69401;SDS011;56589;51.992;5.924;2022-10-26T10:41:15;5.40;;;2.17;;
69401;SDS011;56589;51.992;5.924;2022-10-26T10:43:51;4.30;;;2.58;;
69401;SDS011;56589;51.992;5.924;2022-10-26T10:46:25;7.40;;;2.33;;
69401;SDS011;56589;51.992;5.924;2022-10-26T10:48:53;7.80;;;2.58;;
69401;SDS011;56589;51.992;5.924;2022-10-26T10:51:26;5.53;;;2.28;;
69401;SDS011;56589;51.992;5.924;2022-10-26T10:53:54;7.75;;;2.65;;
69401;SDS011;56589;51.992;5.924;2022-10-26T10:56:30;6.03;;;2.72;;
69401;SDS011;56589;51.992;5.924;2022-10-26T10:59:14;4.47;;;2.58;;
69401;SDS011;56589;51.992;5.924;2022-10-26T11:02:02;5.53;;;2.92;;
69401;SDS011;56589;51.992;5.924;2022-10-26T11:07:44;4.70;;;2.30;;
69401;SDS011;56589;51.992;5.924;2022-10-26T11:10:19;10.45;;;3.33;;
69401;SDS011;56589;51.992;5.924;2022-10-26T11:12:52;6.57;;;2.33;;
69401;SDS011;56589;51.992;5.924;2022-10-26T11:15:29;9.48;;;2.33;;
69401;SDS011;56589;51.992;5.924;2022-10-26T11:18:00;4.75;;;2.28;;
69401;SDS011;56589;51.992;5.924;2022-10-26T11:20:33;6.93;;;2.50;;
69401;SDS011;56589;51.992;5.924;2022-10-26T11:23:08;5.30;;;2.40;;
69401;SDS011;56589;51.992;5.924;2022-10-26T11:25:43;9.30;;;3.10;;
69401;SDS011;56589;51.992;5.924;2022-10-26T11:28:19;5.43;;;2.33;;
69401;SDS011;56589;51.992;5.924;2022-10-26T11:31:08;6.10;;;2.60;;
69401;SDS011;56589;51.992;5.924;2022-10-26T11:33:42;8.15;;;2.40;;
69401;SDS011;56589;51.992;5.924;2022-10-26T11:36:19;9.15;;;3.40;;
69401;SDS011;56589;51.992;5.924;2022-10-26T11:38:52;8.05;;;2.05;;
69401;SDS011;56589;51.992;5.924;2022-10-26T11:41:30;7.80;;;2.13;;
69401;SDS011;56589;51.992;5.924;2022-10-26T11:44:08;4.88;;;2.10;;
69401;SDS011;56589;51.992;5.924;2022-10-26T11:46:46;9.85;;;2.08;;
69401;SDS011;56589;51.992;5.924;2022-10-26T11:49:21;5.03;;;2.00;;
69401;SDS011;56589;51.992;5.924;2022-10-26T11:51:58;8.85;;;2.13;;
69401;SDS011;56589;51.992;5.924;2022-10-26T11:54:36;8.02;;;2.83;;
69401;SDS011;56589;51.992;5.924;2022-10-26T11:57:10;7.45;;;2.47;;
69401;SDS011;56589;51.992;5.924;2022-10-26T11:59:38;7.40;;;2.45;;
69401;SDS011;56589;51.992;5.924;2022-10-26T12:02:16;6.47;;;2.22;;
69401;SDS011;56589;51.992;5.924;2022-10-26T12:04:47;5.80;;;2.63;;
69401;SDS011;56589;51.992;5.924;2022-10-26T12:07:21;5.93;;;2.30;;
69401;SDS011;56589;51.992;5.924;2022-10-26T12:09:53;4.90;;;2.13;;
69401;SDS011;56589;51.992;5.924;2022-10-26T12:12:23;6.30;;;2.08;;
69401;SDS011;56589;51.992;5.924;2022-10-26T12:15:02;9.85;;;2.30;;
69401;SDS011;56589;51.992;5.924;2022-10-26T12:17:49;4.10;;;1.88;;
69401;SDS011;56589;51.992;5.924;2022-10-26T12:23:19;6.15;;;2.00;;
69401;SDS011;56589;51.992;5.924;2022-10-26T12:25:47;5.55;;;2.17;;
69401;SDS011;56589;51.992;5.924;2022-10-26T12:28:38;5.55;;;2.00;;
69401;SDS011;56589;51.992;5.924;2022-10-26T12:31:59;7.55;;;2.05;;
69401;SDS011;56589;51.992;5.924;2022-10-26T12:35:27;7.68;;;2.28;;
69401;SDS011;56589;51.992;5.924;2022-10-26T12:41:21;7.53;;;2.00;;
69401;SDS011;56589;51.992;5.924;2022-10-26T12:43:49;4.95;;;2.25;;
69401;SDS011;56589;51.992;5.924;2022-10-26T12:52:45;6.85;;;2.20;;
69401;SDS011;56589;51.992;5.924;2022-10-26T12:55:22;6.22;;;2.00;;
69401;SDS011;56589;51.992;5.924;2022-10-26T12:58:11;9.48;;;2.67;;
69401;SDS011;56589;51.992;5.924;2022-10-26T13:01:07;9.35;;;2.35;;
69401;SDS011;56589;51.992;5.924;2022-10-26T13:07:14;7.35;;;1.85;;
69401;SDS011;56589;51.992;5.924;2022-10-26T13:09:49;6.43;;;2.40;;
69401;SDS011;56589;51.992;5.924;2022-10-26T13:12:34;9.18;;;1.98;;
69401;SDS011;56589;51.992;5.924;2022-10-26T13:15:17;5.95;;;2.10;;
69401;SDS011;56589;51.992;5.924;2022-10-26T13:17:58;7.15;;;1.77;;
69401;SDS011;56589;51.992;5.924;2022-10-26T13:20:31;8.35;;;2.05;;
69401;SDS011;56589;51.992;5.924;2022-10-26T13:23:01;7.28;;;2.22;;
69401;SDS011;56589;51.992;5.924;2022-10-26T13:25:42;6.53;;;1.90;;
69401;SDS011;56589;51.992;5.924;2022-10-26T13:28:31;5.55;;;2.17;;
69401;SDS011;56589;51.992;5.924;2022-10-26T13:31:09;4.35;;;2.10;;
69401;SDS011;56589;51.992;5.924;2022-10-26T13:34:08;7.70;;;2.50;;
69401;SDS011;56589;51.992;5.924;2022-10-26T13:36:41;5.68;;;1.95;;
69401;SDS011;56589;51.992;5.924;2022-10-26T13:39:16;6.05;;;2.38;;
69401;SDS011;56589;51.992;5.924;2022-10-26T13:41:52;3.92;;;2.25;;
69401;SDS011;56589;51.992;5.924;2022-10-26T13:44:21;7.55;;;2.20;;
69401;SDS011;56589;51.992;5.924;2022-10-26T13:49:24;6.57;;;2.30;;
69401;SDS011;56589;51.992;5.924;2022-10-26T13:51:56;4.57;;;2.40;;
69401;SDS011;56589;51.992;5.924;2022-10-26T13:54:29;7.22;;;2.30;;
69401;SDS011;56589;51.992;5.924;2022-10-26T13:57:09;6.07;;;2.80;;
69401;SDS011;56589;51.992;5.924;2022-10-26T13:59:44;5.68;;;2.20;;
69401;SDS011;56589;51.992;5.924;2022-10-26T14:02:16;7.00;;;2.50;;
69401;SDS011;56589;51.992;5.924;2022-10-26T14:04:50;6.53;;;2.40;;
69401;SDS011;56589;51.992;5.924;2022-10-26T14:07:28;8.38;;;2.50;;
69401;SDS011;56589;51.992;5.924;2022-10-26T14:13:06;6.70;;;2.80;;
69401;SDS011;56589;51.992;5.924;2022-10-26T14:15:41;4.57;;;2.17;;
69401;SDS011;56589;51.992;5.924;2022-10-26T14:18:17;3.75;;;2.30;;
69401;SDS011;56589;51.992;5.924;2022-10-26T14:20:52;3.58;;;2.17;;
69401;SDS011;56589;51.992;5.924;2022-10-26T14:23:27;6.97;;;2.13;;
69401;SDS011;56589;51.992;5.924;2022-10-26T14:26:02;4.72;;;2.08;;
69401;SDS011;56589;51.992;5.924;2022-10-26T14:28:31;6.43;;;2.00;;
69401;SDS011;56589;51.992;5.924;2022-10-26T14:31:10;4.45;;;2.05;;
69401;SDS011;56589;51.992;5.924;2022-10-26T14:33:37;6.47;;;1.95;;
69401;SDS011;56589;51.992;5.924;2022-10-26T14:36:04;3.70;;;1.80;;
69401;SDS011;56589;51.992;5.924;2022-10-26T14:38:31;9.43;;;2.10;;
69401;SDS011;56589;51.992;5.924;2022-10-26T14:41:07;6.07;;;2.13;;
69401;SDS011;56589;51.992;5.924;2022-10-26T14:43:36;13.60;;;2.63;;
69401;SDS011;56589;51.992;5.924;2022-10-26T14:46:02;6.20;;;2.50;;
69401;SDS011;56589;51.992;5.924;2022-10-26T14:48:31;6.15;;;2.30;;
69401;SDS011;56589;51.992;5.924;2022-10-26T14:51:00;4.60;;;2.10;;
69401;SDS011;56589;51.992;5.924;2022-10-26T14:53:35;5.50;;;2.28;;
69401;SDS011;56589;51.992;5.924;2022-10-26T14:56:04;4.57;;;1.77;;
69401;SDS011;56589;51.992;5.924;2022-10-26T14:58:48;4.15;;;1.75;;
69401;SDS011;56589;51.992;5.924;2022-10-26T15:01:15;4.93;;;1.70;;
69401;SDS011;56589;51.992;5.924;2022-10-26T15:03:54;5.57;;;1.90;;
69401;SDS011;56589;51.992;5.924;2022-10-26T15:06:33;7.03;;;1.88;;
69401;SDS011;56589;51.992;5.924;2022-10-26T15:12:13;4.53;;;1.50;;
69401;SDS011;56589;51.992;5.924;2022-10-26T15:14:49;6.18;;;1.60;;
69401;SDS011;56589;51.992;5.924;2022-10-26T15:17:18;5.85;;;1.48;;
69401;SDS011;56589;51.992;5.924;2022-10-26T15:19:49;5.43;;;1.40;;
69401;SDS011;56589;51.992;5.924;2022-10-26T15:22:19;3.95;;;1.48;;
69401;SDS011;56589;51.992;5.924;2022-10-26T15:24:50;6.20;;;1.60;;
69401;SDS011;56589;51.992;5.924;2022-10-26T15:27:21;4.77;;;1.57;;
69401;SDS011;56589;51.992;5.924;2022-10-26T15:30:07;7.20;;;1.23;;
69401;SDS011;56589;51.992;5.924;2022-10-26T15:32:42;8.82;;;2.03;;
69401;SDS011;56589;51.992;5.924;2022-10-26T15:35:26;5.78;;;1.30;;
69401;SDS011;56589;51.992;5.924;2022-10-26T15:37:55;5.03;;;1.40;;
69401;SDS011;56589;51.992;5.924;2022-10-26T15:40:23;3.38;;;1.40;;
69401;SDS011;56589;51.992;5.924;2022-10-26T15:42:55;5.03;;;1.67;;
69401;SDS011;56589;51.992;5.924;2022-10-26T15:45:28;4.20;;;1.65;;
69401;SDS011;56589;51.992;5.924;2022-10-26T15:47:58;4.65;;;1.40;;